Impacts TAF Board INFO
FOR SITUATIONAL AWARENESS. NOT TO BE USED FOR FLIGHT PLANNING PURPOSES.
IDs:

KFLL - Ft Lauderdale-Hollyw, FL, US

Issued at 0311 UTC 22 Apr 2018
Updated at 0441 UTC 22 Apr 2018
Potential Impact None Slight Moderate High
Time<<23/05Z 23/06Z 23/07Z 23/08Z 23/09Z 23/10Z 23/11Z 23/12Z 23/13Z 23/14Z 23/15Z 23/16Z 23/17Z
Type PRVL
VIS >6
CIG 35
Cover BKN
FltCat VFR
WX VCSH
WDir 110
WSpd 12
WGst --

Raw TAF
KFLL 220311Z 2203/2306 10011KT P6SM VCSH SCT020 BKN035
  TEMPO 2203/2206 VRB15KT 4SM SHRA SCT015 BKN025
  FM221500 12015KT P6SM VCSH SCT025 BKN045
  FM222200 11012KT P6SM VCSH SCT025 BKN035


METAR Board
Radar Display
Forecast Discussion

FOR SITUATIONAL AWARENESS. NOT TO BE USED FOR FLIGHT PLANNING PURPOSES.